Time;durP1;ratioP1;P1;durP2;ratioP2;P2;SDS_P1;SDS_P2;PMS_P1;PMS_P2;Temp;Humidity;BMP_temperature;BMP_pressure;BME280_temperature;BME280_humidity;BME280_pressure;Samples;Min_cycle;Max_cycle;Signal;HPM_P1;HPM_P2
2022/09/28 00:00:18;;;;;;;24.37;17.42;;;;;;;13.10;99.43;98065.66;1728210;83;21593;-80
2022/09/28 00:02:45;;;;;;;23.87;16.57;;;;;;;13.14;99.19;98063.17;1728057;83;21711;-79
2022/09/28 00:05:12;;;;;;;23.92;17.70;;;;;;;13.16;99.06;98075.78;1728437;83;21541;-80
2022/09/28 00:07:38;;;;;;;25.82;18.45;;;;;;;13.12;98.75;98067.72;1728053;83;21607;-81
2022/09/28 00:10:06;;;;;;;24.90;17.92;;;;;;;13.09;98.62;98081.13;1727775;83;21505;-80
2022/09/28 00:12:33;;;;;;;28.67;18.48;;;;;;;13.04;98.62;98079.27;1727837;83;21119;-80
2022/09/28 00:15:00;;;;;;;28.10;18.75;;;;;;;12.99;98.95;98083.08;1727594;83;21152;-80
2022/09/28 00:17:26;;;;;;;28.38;18.90;;;;;;;12.98;99.24;98082.70;1727903;83;21034;-79
2022/09/28 00:19:53;;;;;;;28.32;19.48;;;;;;;12.96;99.48;98079.33;1727745;83;21077;-80
2022/09/28 00:22:19;;;;;;;31.00;20.43;;;;;;;12.94;99.54;98093.08;1727674;83;21011;-78
2022/09/28 00:24:47;;;;;;;29.67;20.15;;;;;;;12.87;99.69;98093.13;1727973;83;21190;-81
2022/09/28 00:27:13;;;;;;;32.93;20.68;;;;;;;12.78;100.00;98093.27;1727814;83;21015;-81
2022/09/28 00:29:40;;;;;;;31.02;20.27;;;;;;;12.72;100.00;98098.11;1727897;83;21042;-80
2022/09/28 00:32:12;;;;;;;26.70;18.65;;;;;;;12.68;100.00;98094.83;1728084;83;21161;-80
2022/09/28 00:34:44;;;;;;;30.27;18.48;;;;;;;12.68;100.00;98089.55;1728007;83;20959;-81
2022/09/28 00:37:10;;;;;;;29.57;19.48;;;;;;;12.74;100.00;98090.92;1727694;81;21165;-78
2022/09/28 00:39:37;;;;;;;30.45;20.02;;;;;;;12.75;100.00;98078.95;1727841;83;21072;-80
2022/09/28 00:42:15;;;;;;;26.57;17.75;;;;;;;12.78;100.00;98072.16;1727662;83;21484;-80
2022/09/28 00:44:45;;;;;;;25.88;18.55;;;;;;;12.80;100.00;98065.45;1727874;83;21026;-80
2022/09/28 00:47:45;;;;;;;30.25;17.75;;;;;;;12.84;100.00;98066.92;1727906;83;21675;-78
2022/09/28 00:50:29;;;;;;;26.40;19.02;;;;;;;12.87;100.00;98072.01;1720780;82;21228;-80
2022/09/28 00:53:10;;;;;;;26.25;18.92;;;;;;;12.89;100.00;98073.23;1709746;83;21007;-79
2022/09/28 00:55:52;;;;;;;26.15;18.15;;;;;;;12.90;100.00;98073.13;1710303;83;21135;-81
2022/09/28 00:58:26;;;;;;;29.55;19.42;;;;;;;12.92;100.00;98073.86;1709935;83;21078;-80
2022/09/28 01:00:56;;;;;;;29.72;19.85;;;;;;;12.93;100.00;98075.56;1709845;83;21004;-80
2022/09/28 01:03:24;;;;;;;29.10;19.25;;;;;;;12.92;100.00;98069.91;1709778;83;21452;-81
2022/09/28 01:05:52;;;;;;;25.65;17.75;;;;;;;12.93;100.00;98059.72;1710143;83;21087;-81
2022/09/28 01:08:20;;;;;;;30.45;20.92;;;;;;;12.95;100.00;98062.27;1689999;83;21044;-80
2022/09/28 01:10:50;;;;;;;28.45;19.73;;;;;;;12.97;100.00;98068.28;1709720;83;21590;-80
2022/09/28 01:13:17;;;;;;;29.55;19.02;;;;;;;12.95;100.00;98067.06;1709937;83;21055;-81
2022/09/28 01:16:13;;;;;;;28.07;19.62;;;;;;;12.93;100.00;98075.56;1689767;83;21622;-80
2022/09/28 01:19:13;;;;;;;30.08;21.57;;;;;;;12.96;100.00;98072.72;1689480;83;21360;-79
2022/09/28 01:21:50;;;;;;;30.52;22.30;;;;;;;12.98;100.00;98069.98;1710104;83;21542;-80
2022/09/28 01:24:39;;;;;;;36.65;24.77;;;;;;;12.97;100.00;98067.80;1710149;83;21031;-80
2022/09/28 01:27:26;;;;;;;36.28;26.50;;;;;;;12.99;100.00;98069.02;1709583;83;21007;-80
2022/09/28 01:30:07;;;;;;;39.80;27.90;;;;;;;13.00;99.81;98068.91;1709712;83;21656;-80
2022/09/28 01:32:56;;;;;;;35.58;26.60;;;;;;;13.01;99.83;98067.98;1709731;83;21467;-79
2022/09/28 01:35:28;;;;;;;37.00;24.67;;;;;;;13.00;99.88;98068.91;1710011;83;21518;-80
2022/09/28 01:38:30;;;;;;;37.10;22.87;;;;;;;13.03;99.80;98074.92;1709489;83;21071;-78
2022/09/28 01:40:57;;;;;;;29.57;22.35;;;;;;;13.04;99.69;98071.35;1707507;83;21090;-80
2022/09/28 01:43:26;;;;;;;40.12;24.82;;;;;;;13.05;99.63;98060.69;1709886;83;21234;-80
2022/09/28 01:45:58;;;;;;;40.88;22.70;;;;;;;13.05;99.51;98051.93;1709959;83;21070;-80
2022/09/28 01:48:52;;;;;;;42.40;22.22;;;;;;;13.06;99.39;98045.20;1709844;83;21062;-80
2022/09/28 01:51:28;;;;;;;32.33;21.25;;;;;;;13.07;99.32;98046.06;1658367;85;21143;-81
2022/09/28 01:53:58;;;;;;;28.42;20.50;;;;;;;13.06;99.28;98042.55;1658800;86;21709;-77
2022/09/28 01:56:30;;;;;;;25.40;19.12;;;;;;;13.05;99.28;98051.93;1664644;83;21240;-80
2022/09/28 01:59:02;;;;;;;26.27;18.10;;;;;;;13.07;99.22;98055.30;1727741;83;22154;-80
2022/09/28 02:01:40;;;;;;;24.15;17.45;;;;;;;13.07;99.16;98063.23;1728583;83;21030;-80
2022/09/28 02:04:14;;;;;;;29.15;18.17;;;;;;;13.08;99.13;98057.84;1727923;83;21109;-81
2022/09/28 02:06:49;;;;;;;29.70;19.82;;;;;;;13.07;98.99;98061.91;1728286;82;21034;-81
2022/09/28 02:09:25;;;;;;;26.55;18.50;;;;;;;13.07;98.78;98059.27;1728096;83;21078;-81
2022/09/28 02:11:57;;;;;;;32.10;18.95;;;;;;;13.06;98.71;98061.52;1727898;83;21160;-80
2022/09/28 02:14:24;;;;;;;26.55;17.73;;;;;;;13.05;98.83;98061.17;1727970;83;21003;-80
2022/09/28 02:16:55;;;;;;;27.30;19.10;;;;;;;13.05;98.96;98067.77;1728072;83;21069;-79
2022/09/28 02:19:25;;;;;;;23.73;17.82;;;;;;;13.03;98.95;98064.37;1727004;83;21592;-81
2022/09/28 02:22:13;;;;;;;27.98;18.70;;;;;;;13.03;98.79;98068.33;1728428;83;21114;-81
2022/09/28 02:24:56;;;;;;;27.80;19.67;;;;;;;13.03;98.73;98070.52;1713326;83;21121;-81
2022/09/28 02:27:48;;;;;;;24.90;17.95;;;;;;;13.03;98.79;98064.37;1728108;83;21113;-79
2022/09/28 02:30:16;;;;;;;23.87;16.90;;;;;;;13.01;98.93;98060.05;1727814;83;21683;-80
2022/09/28 02:32:46;;;;;;;25.52;17.62;;;;;;;13.03;99.00;98053.80;1728386;83;21125;-78
2022/09/28 02:35:16;;;;;;;25.02;17.52;;;;;;;13.05;98.97;98057.21;1727793;83;21288;-79
2022/09/28 02:37:43;;;;;;;24.65;17.60;;;;;;;13.04;98.99;98056.83;1727899;83;21077;-80
2022/09/28 02:40:26;;;;;;;25.50;16.52;;;;;;;13.03;98.96;98059.95;1728158;83;21089;-79
2022/09/28 02:43:16;;;;;;;20.32;15.88;;;;;;;13.04;98.91;98055.51;1695502;83;21691;-80
2022/09/28 02:46:01;;;;;;;25.12;17.70;;;;;;;13.05;98.86;98054.57;1728077;83;21556;-79
2022/09/28 02:49:00;;;;;;;22.85;16.95;;;;;;;13.05;98.80;98062.49;1727699;83;21837;-79
2022/09/28 02:51:41;;;;;;;27.30;17.77;;;;;;;13.04;98.68;98068.71;1727601;82;20994;-78
2022/09/28 02:54:53;;;;;;;24.63;17.17;;;;;;;13.01;98.79;98075.89;1728079;83;21065;-80
2022/09/28 02:57:35;;;;;;;23.15;17.25;;;;;;;13.03;98.87;98076.25;1728007;83;21569;-80
2022/09/28 03:00:10;;;;;;;27.02;18.07;;;;;;;12.99;98.99;98074.30;1727966;82;21133;-80
2022/09/28 03:03:19;;;;;;;24.82;17.05;;;;;;;12.98;99.00;98070.81;1727409;83;22302;-80
2022/09/28 03:06:02;;;;;;;27.82;19.07;;;;;;;12.99;98.98;98069.88;1727739;83;21046;-80
2022/09/28 03:08:59;;;;;;;29.70;20.00;;;;;;;12.97;99.04;98061.20;1727857;83;21006;-79
2022/09/28 03:11:33;;;;;;;25.82;17.67;;;;;;;12.97;99.00;98058.55;1687907;83;21018;-80
2022/09/28 03:14:00;;;;;;;25.68;17.15;;;;;;;12.98;99.00;98060.26;1728373;83;21085;-80
2022/09/28 03:16:30;;;;;;;28.87;18.40;;;;;;;13.00;98.99;98060.16;1694448;83;21090;-79
2022/09/28 03:18:57;;;;;;;28.92;18.70;;;;;;;12.97;99.09;98062.52;1727734;83;21122;-79
2022/09/28 03:21:24;;;;;;;32.58;19.57;;;;;;;12.96;99.18;98064.80;1727725;83;21126;-80
2022/09/28 03:23:51;;;;;;;27.58;20.20;;;;;;;12.97;99.13;98065.16;1727680;83;20987;-79
2022/09/28 03:26:18;;;;;;;31.73;21.90;;;;;;;12.96;98.97;98071.86;1727781;83;21088;-80
2022/09/28 03:28:45;;;;;;;33.73;22.00;;;;;;;12.93;99.01;98065.00;1728068;83;21230;-79
2022/09/28 03:31:13;;;;;;;26.80;19.52;;;;;;;12.91;99.07;98062.08;1727918;82;21085;-79
2022/09/28 03:33:41;;;;;;;26.33;18.57;;;;;;;12.90;99.29;98062.56;1728121;83;21101;-80
2022/09/28 03:36:08;;;;;;;32.58;18.80;;;;;;;12.91;99.40;98060.31;1727965;83;21027;-79
2022/09/28 03:38:36;;;;;;;29.00;20.40;;;;;;;12.91;99.47;98066.91;1728348;83;21045;-80
2022/09/28 03:41:02;;;;;;;28.98;20.68;;;;;;;12.93;99.53;98058.89;1727683;83;21234;-81
2022/09/28 03:43:31;;;;;;;37.38;19.82;;;;;;;12.95;99.51;98065.73;1728138;82;21077;-79
2022/09/28 03:46:00;;;;;;;29.63;20.75;;;;;;;12.94;99.58;98054.80;1728010;83;21069;-80
2022/09/28 03:48:31;;;;;;;26.55;20.17;;;;;;;12.95;99.61;98062.27;1727731;83;21058;-79
2022/09/28 03:51:03;;;;;;;30.95;21.65;;;;;;;12.93;99.63;98058.89;1722559;82;21282;-79
2022/09/28 03:53:31;;;;;;;28.25;20.27;;;;;;;12.93;99.66;98063.69;1709975;83;21253;-80
2022/09/28 03:56:11;;;;;;;28.77;19.80;;;;;;;12.94;99.70;98062.72;1690181;83;21121;-79
2022/09/28 03:58:39;;;;;;;30.50;20.35;;;;;;;12.93;99.63;98059.72;1710095;83;21047;-80
2022/09/28 04:01:14;;;;;;;27.77;19.37;;;;;;;12.94;99.71;98061.88;1709677;83;21067;-80
2022/09/28 04:03:38;;;;;;;27.65;19.65;;;;;;;12.94;99.69;98064.52;1709724;83;20984;-80
2022/09/28 04:06:04;;;;;;;28.23;20.12;;;;;;;12.93;99.70;98066.33;1709842;83;21219;-81
2022/09/28 04:08:33;;;;;;;26.77;19.52;;;;;;;12.93;99.70;98068.97;1709857;83;21067;-79
2022/09/28 04:11:00;;;;;;;28.47;20.65;;;;;;;12.93;99.78;98071.61;1710243;83;21063;-80
2022/09/28 04:13:28;;;;;;;32.55;20.82;;;;;;;12.94;99.78;98073.77;1710319;83;21118;-80
2022/09/28 04:15:56;;;;;;;33.05;20.65;;;;;;;12.94;99.79;98062.72;1710093;83;21567;-80
2022/09/28 04:18:23;;;;;;;30.25;20.48;;;;;;;12.96;99.83;98070.08;1709900;83;21236;-81
2022/09/28 04:21:05;;;;;;;34.30;21.40;;;;;;;12.97;99.85;98068.28;1710283;83;21727;-80
2022/09/28 04:23:35;;;;;;;35.45;22.42;;;;;;;12.95;99.93;98069.70;1689464;83;21109;-80
2022/09/28 04:26:06;;;;;;;32.00;19.65;;;;;;;12.96;99.90;98074.05;1709811;83;21542;-79
2022/09/28 04:31:21;;;;;;;31.33;21.00;;;;;;;12.99;99.77;98067.24;1710253;83;22301;-81
2022/09/28 04:33:48;;;;;;;34.20;21.20;;;;;;;12.98;99.71;98069.50;1709757;83;21071;-77
2022/09/28 04:36:15;;;;;;;32.63;20.25;;;;;;;12.96;99.63;98068.77;1709951;83;21110;-79
2022/09/28 04:38:41;;;;;;;32.45;20.37;;;;;;;12.95;99.72;98065.73;1710208;83;21118;-78
2022/09/28 04:41:08;;;;;;;28.32;20.00;;;;;;;12.94;99.85;98064.03;1709857;83;21063;-80
2022/09/28 04:43:35;;;;;;;27.85;19.50;;;;;;;12.91;99.91;98056.35;1710309;83;21118;-81
2022/09/28 04:46:01;;;;;;;26.93;18.77;;;;;;;12.88;100.00;98052.59;1709832;83;21118;-79
2022/09/28 04:48:30;;;;;;;29.90;18.92;;;;;;;12.88;100.00;98059.19;1709675;83;21173;-81
2022/09/28 04:51:01;;;;;;;29.30;19.80;;;;;;;12.90;100.00;98059.92;1712969;82;21086;-81
2022/09/28 04:53:28;;;;;;;29.05;20.70;;;;;;;12.92;100.00;98058.02;1727834;83;21418;-80
2022/09/28 04:56:05;;;;;;;26.25;18.90;;;;;;;12.94;100.00;98059.23;1727843;83;21212;-79
2022/09/28 04:58:34;;;;;;;29.02;19.52;;;;;;;12.95;100.00;98068.38;1727785;83;21641;-80
2022/09/28 05:01:04;;;;;;;25.90;19.00;;;;;;;12.98;100.00;98062.89;1727875;83;21058;-80
2022/09/28 05:03:45;;;;;;;36.55;19.48;;;;;;;13.02;100.00;98060.89;1701684;83;20983;-80
2022/09/28 05:06:14;;;;;;;26.97;19.87;;;;;;;13.05;100.00;98055.89;1724610;82;21121;-80
2022/09/28 05:08:45;;;;;;;29.23;18.67;;;;;;;13.09;100.00;98063.96;1727913;83;21146;-80
2022/09/28 05:11:12;;;;;;;26.65;17.75;;;;;;;13.14;100.00;98057.89;1728110;83;21640;-80
2022/09/28 05:13:49;;;;;;;25.75;16.90;;;;;;;13.18;100.00;98064.66;1727731;83;20976;-80
2022/09/28 05:16:15;;;;;;;26.97;18.27;;;;;;;13.19;100.00;98059.25;1727803;83;21026;-79
2022/09/28 05:18:46;;;;;;;23.32;17.07;;;;;;;13.23;100.00;98061.69;1726416;82;21046;-80
2022/09/28 05:21:13;;;;;;;24.50;17.40;;;;;;;13.26;99.90;98066.28;1727895;83;21894;-79
2022/09/28 05:23:46;;;;;;;25.82;17.37;;;;;;;13.28;99.58;98056.48;1728149;82;20990;-80
2022/09/28 05:26:13;;;;;;;25.75;18.02;;;;;;;13.28;99.21;98059.12;1728020;83;21101;-80
2022/09/28 05:28:40;;;;;;;25.92;16.65;;;;;;;13.29;98.93;98053.34;1728219;83;21065;-80
2022/09/28 05:31:31;;;;;;;22.62;16.15;;;;;;;13.33;98.80;98049.11;1727899;83;21065;-79
2022/09/28 05:33:58;;;;;;;26.62;17.50;;;;;;;13.36;98.60;98047.58;1727696;83;21867;-80
2022/09/28 05:36:26;;;;;;;27.67;16.70;;;;;;;13.40;98.39;98051.30;1727547;83;21548;-79
2022/09/28 05:38:53;;;;;;;23.07;16.25;;;;;;;13.40;98.22;98055.27;1728321;83;21078;-80
2022/09/28 05:41:20;;;;;;;23.42;15.85;;;;;;;13.43;97.97;98060.34;1718844;83;21026;-80
2022/09/28 05:43:47;;;;;;;21.00;16.15;;;;;;;13.43;97.61;98055.06;1728090;83;21025;-80
2022/09/28 05:46:13;;;;;;;20.82;14.70;;;;;;;13.45;97.32;98062.39;1728157;83;21074;-80
2022/09/28 05:48:41;;;;;;;23.10;16.23;;;;;;;13.45;97.21;98065.03;1727876;83;21027;-78
2022/09/28 05:51:09;;;;;;;21.82;14.60;;;;;;;13.46;97.05;98066.73;1727783;82;21121;-78
2022/09/28 05:53:35;;;;;;;20.65;14.80;;;;;;;13.47;96.70;98069.28;1725818;83;21011;-80
2022/09/28 05:56:04;;;;;;;16.90;15.10;;;;;;;13.50;96.51;98071.70;1725798;83;21031;-80
2022/09/28 05:58:34;;;;;;;20.37;15.38;;;;;;;13.51;96.29;98072.55;1725799;83;21659;-80
2022/09/28 06:01:00;;;;;;;17.98;13.60;;;;;;;13.53;95.98;98070.63;1725980;82;21109;-79
2022/09/28 06:03:27;;;;;;;17.67;14.33;;;;;;;13.55;95.58;98074.04;1726142;83;21065;-80
2022/09/28 06:05:53;;;;;;;17.27;14.93;;;;;;;13.59;95.43;98078.63;1727267;83;21180;-79
2022/09/28 06:08:21;;;;;;;17.20;14.53;;;;;;;13.60;95.24;98080.30;1725827;83;21081;-79
2022/09/28 06:10:50;;;;;;;17.67;14.18;;;;;;;13.59;94.97;98075.50;1725945;82;21815;-81
2022/09/28 06:13:16;;;;;;;17.95;13.60;;;;;;;13.59;94.78;98082.11;1725757;83;21481;-81
2022/09/28 06:15:45;;;;;;;18.32;13.62;;;;;;;13.60;94.09;98081.17;1725881;83;21481;-80
2022/09/28 06:18:13;;;;;;;15.60;13.83;;;;;;;13.61;93.98;98079.36;1725641;83;21068;-79
2022/09/28 06:20:45;;;;;;;19.57;15.03;;;;;;;13.62;93.99;98079.26;1725987;83;21628;-79
2022/09/28 06:23:15;;;;;;;21.95;14.87;;;;;;;13.61;93.81;98076.23;1726181;83;22297;-79
2022/09/28 06:25:43;;;;;;;18.50;13.25;;;;;;;13.61;93.79;98081.52;1726020;83;21023;-80
2022/09/28 06:28:11;;;;;;;16.93;14.83;;;;;;;13.60;93.43;98079.84;1725657;83;22059;-77
2022/09/28 06:30:39;;;;;;;14.98;12.88;;;;;;;13.58;93.15;98076.44;1726238;83;21074;-80
2022/09/28 06:33:11;;;;;;;16.73;13.75;;;;;;;13.56;92.82;98072.58;1726103;83;21150;-80
2022/09/28 06:35:38;;;;;;;18.07;12.13;;;;;;;13.51;92.24;98069.91;1703413;83;21842;-79
2022/09/28 06:38:05;;;;;;;13.72;12.33;;;;;;;13.47;92.41;98064.48;1725646;83;21093;-80
2022/09/28 06:40:32;;;;;;;14.60;13.10;;;;;;;13.45;92.15;98067.22;1725737;83;21046;-80
2022/09/28 06:43:08;;;;;;;15.68;12.33;;;;;;;13.42;91.69;98059.99;1725908;83;21085;-79
2022/09/28 06:45:37;;;;;;;13.83;11.85;;;;;;;13.41;91.57;98063.58;1706155;83;21089;-79
2022/09/28 06:48:12;;;;;;;13.75;11.65;;;;;;;13.41;91.53;98053.84;1726092;83;22274;-80
2022/09/28 06:50:40;;;;;;;15.58;11.57;;;;;;;13.43;91.27;98055.92;1726061;83;21046;-81
2022/09/28 06:53:12;;;;;;;17.67;12.30;;;;;;;13.45;91.22;98055.79;1712637;82;21130;-79
2022/09/28 06:56:01;;;;;;;14.45;11.43;;;;;;;13.42;90.90;98055.55;1710640;83;21090;-79
2022/09/28 06:58:29;;;;;;;12.40;11.03;;;;;;;13.40;90.83;98049.98;1710057;83;21083;-80
2022/09/28 07:00:58;;;;;;;12.18;10.98;;;;;;;13.41;90.50;98049.05;1710512;83;21198;-79
2022/09/28 07:03:25;;;;;;;14.23;12.03;;;;;;;13.40;90.26;98048.66;1710069;83;21454;-81
2022/09/28 07:06:03;;;;;;;12.82;11.53;;;;;;;13.38;90.09;98052.27;1710215;83;21114;-79
2022/09/28 07:08:35;;;;;;;12.20;10.98;;;;;;;13.36;89.69;98058.60;1709597;83;21574;-80
2022/09/28 07:11:05;;;;;;;12.50;11.15;;;;;;;13.36;89.87;98059.92;1709920;83;21133;-79
2022/09/28 07:13:47;;;;;;;13.15;11.63;;;;;;;13.37;89.82;98053.21;1709798;83;21956;-79
2022/09/28 07:16:13;;;;;;;12.00;10.38;;;;;;;13.36;89.89;98048.91;1710099;83;21133;-81
2022/09/28 07:18:41;;;;;;;12.40;11.05;;;;;;;13.37;89.60;98042.64;1709596;83;21552;-79
2022/09/28 07:21:08;;;;;;;10.90;9.78;;;;;;;13.40;89.68;98038.09;1709782;83;21101;-80
2022/09/28 07:23:35;;;;;;;14.30;10.28;;;;;;;13.45;89.57;98039.94;1709977;83;21113;-81
2022/09/28 07:26:06;;;;;;;10.98;9.93;;;;;;;13.50;89.65;98037.36;1710248;83;21761;-81
2022/09/28 07:28:54;;;;;;;15.05;10.82;;;;;;;13.57;89.82;98036.45;1709994;83;21110;-81
2022/09/28 07:31:24;;;;;;;12.35;10.30;;;;;;;13.63;89.80;98037.32;1706755;83;21533;-80
2022/09/28 07:33:52;;;;;;;15.15;10.58;;;;;;;13.67;89.65;98036.16;1709891;83;21046;-79
2022/09/28 07:36:21;;;;;;;11.63;10.40;;;;;;;13.71;88.96;98037.63;1709847;83;21059;-80
2022/09/28 07:38:50;;;;;;;13.88;10.50;;;;;;;13.75;88.87;98027.67;1710045;83;21160;-81
2022/09/28 07:41:25;;;;;;;13.65;10.80;;;;;;;13.81;88.93;98031.20;1709639;83;21074;-80
2022/09/28 07:43:48;;;;;;;11.85;10.65;;;;;;;13.86;88.59;98033.53;1709981;83;21082;-80
2022/09/28 07:46:16;;;;;;;11.93;10.08;;;;;;;13.91;88.42;98035.36;1710156;83;21503;-80
2022/09/28 07:48:46;;;;;;;11.68;10.03;;;;;;;13.95;88.06;98034.17;1709905;83;21526;-79
2022/09/28 07:51:21;;;;;;;;;;;;;;;13.98;87.83;98029.16;1691826;83;21243;-79
2022/09/28 07:54:07;;;;;;;19.15;10.75;;;;;;;13.98;87.65;98031.80;1709778;83;20150;-79
2022/09/28 07:56:41;;;;;;;15.00;10.05;;;;;;;13.99;87.30;98038.30;1710094;83;21082;-79
2022/09/28 07:59:10;;;;;;;13.18;10.60;;;;;;;14.00;86.98;98034.69;1709972;83;21063;-79
2022/09/28 08:01:39;;;;;;;11.45;9.88;;;;;;;14.02;87.21;98035.89;1710049;83;21094;-79
2022/09/28 08:04:07;;;;;;;15.20;10.20;;;;;;;14.06;87.49;98038.22;1710060;83;21233;-80
2022/09/28 08:06:35;;;;;;;11.45;9.65;;;;;;;14.09;87.38;98038.00;1709641;83;21969;-79
2022/09/28 08:09:03;;;;;;;10.88;9.50;;;;;;;14.14;87.18;98033.70;1709960;83;21082;-81
2022/09/28 08:11:48;;;;;;;12.35;10.50;;;;;;;14.19;86.97;98028.05;1709896;83;21078;-80
2022/09/28 08:14:33;;;;;;;11.33;10.15;;;;;;;14.23;86.94;98026.89;1709955;83;21135;-79
2022/09/28 08:17:11;;;;;;;13.88;10.25;;;;;;;14.27;86.70;98027.02;1693903;84;21140;-77
2022/09/28 08:22:25;;;;;;;11.95;10.68;;;;;;;14.37;86.70;98027.19;1709744;83;21078;-79
2022/09/28 08:24:53;;;;;;;16.02;10.85;;;;;;;14.45;86.53;98026.98;1709863;83;21071;-79
2022/09/28 08:27:20;;;;;;;12.50;10.78;;;;;;;14.54;85.98;98021.95;1710032;83;21019;-81
2022/09/28 08:29:47;;;;;;;12.73;10.50;;;;;;;14.63;86.26;98032.73;1709766;83;21206;-79
2022/09/28 08:32:34;;;;;;;13.78;10.98;;;;;;;14.73;86.31;98027.60;1709387;83;21062;-79
2022/09/28 08:35:19;;;;;;;14.20;11.15;;;;;;;14.88;85.78;98028.25;1709802;83;21170;-80
2022/09/28 08:37:52;;;;;;;15.03;11.50;;;;;;;15.08;85.52;98017.45;1709939;83;21082;-80
2022/09/28 08:41:10;;;;;;;18.50;12.93;;;;;;;15.27;85.02;98013.38;1709821;83;21055;-80
2022/09/28 08:43:53;;;;;;;19.30;12.85;;;;;;;15.47;84.24;98021.09;1680213;83;21253;-80
2022/09/28 08:46:24;;;;;;;19.90;12.20;;;;;;;15.69;83.34;98017.59;1708125;83;21055;-79
2022/09/28 08:49:07;;;;;;;16.00;11.85;;;;;;;15.79;82.30;98010.61;1707672;83;21166;-78
2022/09/28 08:51:43;;;;;;;16.67;12.25;;;;;;;15.92;81.37;98014.42;1708736;83;21050;-78
2022/09/28 08:54:47;;;;;;;16.27;12.40;;;;;;;15.98;79.96;98013.45;1719330;82;21110;-79
2022/09/28 08:57:20;;;;;;;17.48;12.40;;;;;;;16.04;79.38;98012.59;1726672;82;21763;-78
2022/09/28 08:59:53;;;;;;;15.13;11.43;;;;;;;16.07;78.72;98016.33;1727499;82;20939;-80
2022/09/28 09:02:32;;;;;;;13.40;11.85;;;;;;;16.03;78.65;98021.04;1727790;82;21545;-78
2022/09/28 09:05:02;;;;;;;14.38;11.73;;;;;;;15.97;77.71;98010.45;1726399;83;21122;-78
2022/09/28 09:08:00;;;;;;;14.98;10.00;;;;;;;15.91;77.96;98020.71;1727315;83;22227;-78
2022/09/28 09:10:36;;;;;;;14.60;11.30;;;;;;;15.85;78.18;98016.73;1728217;83;21129;-78
2022/09/28 09:13:32;;;;;;;15.98;10.45;;;;;;;15.79;79.11;98018.07;1727768;83;21097;-79
2022/09/28 09:16:31;;;;;;;16.30;10.48;;;;;;;15.80;79.37;98016.25;1718854;82;21081;-79
2022/09/28 09:19:34;;;;;;;13.53;11.05;;;;;;;15.87;79.74;98029.41;1715218;82;21117;-79
2022/09/28 09:22:28;;;;;;;16.20;10.45;;;;;;;15.93;80.03;98023.59;1683645;83;20995;-80
2022/09/28 09:25:19;;;;;;;17.70;9.90;;;;;;;16.01;79.65;98021.66;1727491;83;22365;-78
2022/09/28 09:28:06;;;;;;;13.58;10.35;;;;;;;16.06;79.28;98013.33;1727644;83;21082;-81
2022/09/28 09:31:18;;;;;;;16.37;10.32;;;;;;;16.08;77.87;98003.43;1728141;83;21009;-78
2022/09/28 09:34:10;;;;;;;12.47;10.58;;;;;;;16.13;78.68;98002.56;1727028;83;21141;-80
2022/09/28 09:37:00;;;;;;;12.98;10.20;;;;;;;16.24;78.53;98000.34;1728173;82;21066;-79
2022/09/28 09:40:07;;;;;;;11.90;9.93;;;;;;;16.30;78.29;98005.99;1727681;83;21246;-80
2022/09/28 09:43:16;;;;;;;13.13;10.13;;;;;;;16.40;78.07;97998.62;1722781;82;21085;-78
2022/09/28 09:45:56;;;;;;;15.50;10.45;;;;;;;16.47;77.97;98011.23;1727342;83;21089;-80
2022/09/28 09:48:54;;;;;;;13.55;10.60;;;;;;;16.47;76.37;98013.89;1695370;83;27932;-79
2022/09/28 09:51:42;;;;;;;13.35;10.75;;;;;;;16.38;75.83;98011.18;1727575;83;21101;-76
2022/09/28 09:54:15;;;;;;;13.05;10.00;;;;;;;16.30;76.45;98017.11;1727429;81;21175;-79
2022/09/28 09:56:46;;;;;;;12.93;10.25;;;;;;;16.29;77.21;98021.58;1709171;83;21859;-79
2022/09/28 09:59:29;;;;;;;13.78;10.48;;;;;;;16.33;76.96;98015.03;1726322;83;21683;-79
2022/09/28 10:02:25;;;;;;;13.88;10.13;;;;;;;16.36;76.60;98021.92;1727698;83;21078;-79
2022/09/28 10:05:12;;;;;;;12.43;10.28;;;;;;;16.33;77.19;98025.66;1727651;82;21061;-79
2022/09/28 10:07:44;;;;;;;12.07;10.30;;;;;;;16.34;77.23;98024.70;1717275;83;21212;-79
2022/09/28 10:10:25;;;;;;;13.05;9.88;;;;;;;16.34;76.82;98031.33;1728089;83;21125;-80
2022/09/28 10:12:54;;;;;;;14.13;9.68;;;;;;;16.30;77.24;98024.58;1725906;83;21696;-80
2022/09/28 10:15:26;;;;;;;12.45;9.73;;;;;;;16.32;77.29;98019.14;1727674;83;20999;-77
2022/09/28 10:18:05;;;;;;;;;;;;;;;16.37;77.46;98021.42;1696667;83;21007;-78
2022/09/28 10:20:50;;;;;;;12.30;9.98;;;;;;;16.43;77.89;98016.95;1727942;83;21099;-79
2022/09/28 10:23:30;;;;;;;13.90;9.93;;;;;;;16.49;78.12;98023.92;1727138;82;21093;-78
2022/09/28 10:26:12;;;;;;;12.05;9.70;;;;;;;16.51;77.71;98017.16;1728029;83;21059;-80
2022/09/28 10:28:52;;;;;;;13.88;10.32;;;;;;;16.54;77.39;98022.19;1728180;83;21185;-79
2022/09/28 10:31:44;;;;;;;11.35;9.45;;;;;;;16.55;76.90;98019.07;1728221;83;21066;-78
2022/09/28 10:34:18;;;;;;;15.98;9.80;;;;;;;16.54;76.76;98016.88;1726972;83;22238;-79
2022/09/28 10:36:59;;;;;;;16.15;10.88;;;;;;;16.55;76.79;98011.94;1696177;83;21010;-78
2022/09/28 10:39:38;;;;;;;13.10;10.98;;;;;;;16.54;76.83;98018.20;1727652;83;21569;-78
2022/09/28 10:42:11;;;;;;;15.25;12.03;;;;;;;16.54;76.45;98019.53;1728058;83;21582;-79
2022/09/28 10:45:13;;;;;;;13.60;10.75;;;;;;;16.55;76.33;98027.03;1727680;83;21600;-79
2022/09/28 10:47:41;;;;;;;17.10;10.95;;;;;;;16.52;76.51;98021.48;1727927;83;21109;-78
2022/09/28 10:50:21;;;;;;;15.38;11.08;;;;;;;16.51;77.31;98022.47;1694100;83;21419;-80
2022/09/28 10:52:49;;;;;;;14.75;11.30;;;;;;;16.51;77.39;98015.83;1726025;81;21061;-79
2022/09/28 10:55:28;;;;;;;13.08;10.72;;;;;;;16.53;77.10;98017.38;1699602;83;21530;-79
2022/09/28 10:57:55;;;;;;;14.43;10.88;;;;;;;16.53;76.96;98017.87;1709880;83;21790;-78
2022/09/28 11:00:39;;;;;;;17.00;11.22;;;;;;;16.50;78.09;98016.79;1709612;83;21130;-78
2022/09/28 11:03:25;;;;;;;13.88;10.93;;;;;;;16.49;78.66;98022.59;1709760;83;21498;-78
2022/09/28 11:05:58;;;;;;;14.45;10.75;;;;;;;16.51;78.81;98015.83;1707892;83;21019;-79
2022/09/28 11:08:36;;;;;;;17.05;11.45;;;;;;;16.53;78.94;98015.22;1690197;83;21473;-79
2022/09/28 11:11:12;;;;;;;19.10;10.82;;;;;;;16.55;78.89;98017.25;1709839;83;21070;-80
2022/09/28 11:13:42;;;;;;;15.05;10.38;;;;;;;16.54;78.63;98019.53;1710055;83;21104;-80
2022/09/28 11:16:28;;;;;;;11.25;9.85;;;;;;;16.57;78.79;98016.63;1709812;83;21119;-79
2022/09/28 11:19:05;;;;;;;13.60;10.18;;;;;;;16.60;78.79;98016.88;1710192;83;21114;-79
2022/09/28 11:21:41;;;;;;;15.03;10.43;;;;;;;16.64;78.57;98007.20;1709615;83;21114;-78
2022/09/28 11:24:24;;;;;;;14.78;10.75;;;;;;;16.71;78.77;98007.53;1709873;83;21023;-79
2022/09/28 11:26:59;;;;;;;13.32;10.08;;;;;;;16.77;78.65;98008.32;1709712;83;21269;-80
2022/09/28 11:29:52;;;;;;;13.62;11.08;;;;;;;16.84;79.16;98013.96;1709648;83;21126;-78
2022/09/28 11:32:19;;;;;;;17.05;11.20;;;;;;;16.88;78.28;98008.80;1709712;83;21131;-78
2022/09/28 11:34:59;;;;;;;13.20;11.03;;;;;;;16.90;77.78;98010.33;1709159;83;21015;-80
2022/09/28 11:37:52;;;;;;;15.23;11.08;;;;;;;16.91;77.63;98004.52;1713294;83;21139;-76
2022/09/28 11:40:32;;;;;;;18.02;11.30;;;;;;;16.90;77.31;98009.50;1710401;83;21164;-79
2022/09/28 11:43:13;;;;;;;18.30;11.90;;;;;;;16.89;76.92;98013.11;1709698;83;21111;-79
2022/09/28 11:45:58;;;;;;;14.87;11.33;;;;;;;16.84;76.74;98009.52;1707347;83;21685;-79
2022/09/28 11:48:45;;;;;;;15.48;11.50;;;;;;;16.82;76.96;98011.43;1709962;83;21328;-80
2022/09/28 11:51:23;;;;;;;18.98;11.78;;;;;;;16.79;76.64;98010.36;1709919;83;21118;-80
2022/09/28 11:53:54;;;;;;;17.50;11.88;;;;;;;16.74;77.18;98007.25;1716704;82;21113;-80
2022/09/28 11:56:37;;;;;;;16.42;11.38;;;;;;;16.71;77.12;98013.67;1727752;83;21082;-79
2022/09/28 11:59:26;;;;;;;15.90;10.95;;;;;;;16.69;77.61;98011.64;1727161;83;21062;-80